sensor_id;sensor_type;location;lat;lon;timestamp;P1;durP1;ratioP1;P2;durP2;ratioP2
48751;SDS011;34544;48.836;9.174;2024-03-22T00:01:52;30.00;;;18.35;;
48751;SDS011;34544;48.836;9.174;2024-03-22T00:04:19;28.38;;;16.55;;
48751;SDS011;34544;48.836;9.174;2024-03-22T00:06:45;33.10;;;17.13;;
48751;SDS011;34544;48.836;9.174;2024-03-22T00:09:12;24.58;;;17.67;;
48751;SDS011;34544;48.836;9.174;2024-03-22T00:11:41;34.42;;;18.95;;
48751;SDS011;34544;48.836;9.174;2024-03-22T00:14:08;29.38;;;18.23;;
48751;SDS011;34544;48.836;9.174;2024-03-22T00:16:34;25.73;;;17.15;;
48751;SDS011;34544;48.836;9.174;2024-03-22T00:19:00;26.58;;;17.73;;
48751;SDS011;34544;48.836;9.174;2024-03-22T00:21:26;34.90;;;19.42;;
48751;SDS011;34544;48.836;9.174;2024-03-22T00:23:53;25.42;;;17.92;;
48751;SDS011;34544;48.836;9.174;2024-03-22T00:26:19;25.27;;;16.90;;
48751;SDS011;34544;48.836;9.174;2024-03-22T00:28:45;23.92;;;17.42;;
48751;SDS011;34544;48.836;9.174;2024-03-22T00:31:10;26.38;;;17.42;;
48751;SDS011;34544;48.836;9.174;2024-03-22T00:33:36;24.52;;;16.17;;
48751;SDS011;34544;48.836;9.174;2024-03-22T00:36:02;27.95;;;17.67;;
48751;SDS011;34544;48.836;9.174;2024-03-22T00:38:28;26.63;;;17.85;;
48751;SDS011;34544;48.836;9.174;2024-03-22T00:40:54;27.17;;;17.17;;
48751;SDS011;34544;48.836;9.174;2024-03-22T00:43:20;40.05;;;18.13;;
48751;SDS011;34544;48.836;9.174;2024-03-22T00:45:46;28.02;;;17.20;;
48751;SDS011;34544;48.836;9.174;2024-03-22T00:48:12;27.23;;;16.30;;
48751;SDS011;34544;48.836;9.174;2024-03-22T00:50:38;27.40;;;16.75;;
48751;SDS011;34544;48.836;9.174;2024-03-22T00:53:04;36.72;;;17.60;;
48751;SDS011;34544;48.836;9.174;2024-03-22T00:55:30;22.63;;;16.17;;
48751;SDS011;34544;48.836;9.174;2024-03-22T00:57:56;27.30;;;17.52;;
48751;SDS011;34544;48.836;9.174;2024-03-22T01:00:23;31.50;;;17.60;;
48751;SDS011;34544;48.836;9.174;2024-03-22T01:02:49;25.08;;;17.25;;
48751;SDS011;34544;48.836;9.174;2024-03-22T01:05:15;25.35;;;17.08;;
48751;SDS011;34544;48.836;9.174;2024-03-22T01:07:41;26.00;;;17.45;;
48751;SDS011;34544;48.836;9.174;2024-03-22T01:10:07;26.67;;;16.73;;
48751;SDS011;34544;48.836;9.174;2024-03-22T01:12:33;32.17;;;17.85;;
48751;SDS011;34544;48.836;9.174;2024-03-22T01:14:59;28.50;;;18.17;;
48751;SDS011;34544;48.836;9.174;2024-03-22T01:17:25;26.02;;;17.23;;
48751;SDS011;34544;48.836;9.174;2024-03-22T01:19:51;26.65;;;16.65;;
48751;SDS011;34544;48.836;9.174;2024-03-22T01:22:17;26.42;;;17.55;;
48751;SDS011;34544;48.836;9.174;2024-03-22T01:24:44;28.15;;;18.10;;
48751;SDS011;34544;48.836;9.174;2024-03-22T01:27:10;24.58;;;16.38;;
48751;SDS011;34544;48.836;9.174;2024-03-22T01:29:37;26.85;;;17.77;;
48751;SDS011;34544;48.836;9.174;2024-03-22T01:32:03;24.63;;;16.35;;
48751;SDS011;34544;48.836;9.174;2024-03-22T01:34:28;30.52;;;18.65;;
48751;SDS011;34544;48.836;9.174;2024-03-22T01:36:54;28.45;;;17.60;;
48751;SDS011;34544;48.836;9.174;2024-03-22T01:39:20;29.77;;;18.55;;
48751;SDS011;34544;48.836;9.174;2024-03-22T01:41:50;26.48;;;16.80;;
48751;SDS011;34544;48.836;9.174;2024-03-22T01:44:16;26.45;;;16.73;;
48751;SDS011;34544;48.836;9.174;2024-03-22T01:46:44;30.08;;;18.67;;
48751;SDS011;34544;48.836;9.174;2024-03-22T01:49:11;30.45;;;17.65;;
48751;SDS011;34544;48.836;9.174;2024-03-22T01:51:41;24.55;;;17.20;;
48751;SDS011;34544;48.836;9.174;2024-03-22T01:54:08;34.42;;;18.08;;
48751;SDS011;34544;48.836;9.174;2024-03-22T01:56:37;27.27;;;16.83;;
48751;SDS011;34544;48.836;9.174;2024-03-22T01:59:04;27.05;;;17.42;;
48751;SDS011;34544;48.836;9.174;2024-03-22T02:01:31;28.17;;;17.42;;
48751;SDS011;34544;48.836;9.174;2024-03-22T02:03:57;22.48;;;16.23;;
48751;SDS011;34544;48.836;9.174;2024-03-22T02:06:23;24.92;;;17.38;;
48751;SDS011;34544;48.836;9.174;2024-03-22T02:08:49;22.95;;;16.85;;
48751;SDS011;34544;48.836;9.174;2024-03-22T02:11:15;25.45;;;15.32;;
48751;SDS011;34544;48.836;9.174;2024-03-22T02:13:41;30.48;;;16.30;;
48751;SDS011;34544;48.836;9.174;2024-03-22T02:16:08;23.77;;;15.93;;
48751;SDS011;34544;48.836;9.174;2024-03-22T02:18:34;25.40;;;15.48;;
48751;SDS011;34544;48.836;9.174;2024-03-22T02:21:00;28.90;;;17.98;;
48751;SDS011;34544;48.836;9.174;2024-03-22T02:23:35;22.70;;;16.15;;
48751;SDS011;34544;48.836;9.174;2024-03-22T02:26:01;27.17;;;17.95;;
48751;SDS011;34544;48.836;9.174;2024-03-22T02:28:28;32.25;;;16.77;;
48751;SDS011;34544;48.836;9.174;2024-03-22T02:30:54;25.95;;;17.85;;
48751;SDS011;34544;48.836;9.174;2024-03-22T02:33:20;28.30;;;17.35;;
48751;SDS011;34544;48.836;9.174;2024-03-22T02:35:46;26.08;;;17.55;;
48751;SDS011;34544;48.836;9.174;2024-03-22T02:38:12;22.10;;;16.10;;
48751;SDS011;34544;48.836;9.174;2024-03-22T02:40:38;31.98;;;17.50;;
48751;SDS011;34544;48.836;9.174;2024-03-22T02:43:04;25.13;;;16.30;;
48751;SDS011;34544;48.836;9.174;2024-03-22T02:45:30;25.73;;;16.35;;
48751;SDS011;34544;48.836;9.174;2024-03-22T02:47:56;19.50;;;15.60;;
48751;SDS011;34544;48.836;9.174;2024-03-22T02:50:22;22.63;;;15.45;;
48751;SDS011;34544;48.836;9.174;2024-03-22T02:52:48;22.98;;;16.05;;
48751;SDS011;34544;48.836;9.174;2024-03-22T02:55:14;26.02;;;16.05;;
48751;SDS011;34544;48.836;9.174;2024-03-22T02:57:40;23.85;;;14.88;;
48751;SDS011;34544;48.836;9.174;2024-03-22T03:00:06;27.25;;;15.50;;
48751;SDS011;34544;48.836;9.174;2024-03-22T03:02:32;24.15;;;14.93;;
48751;SDS011;34544;48.836;9.174;2024-03-22T03:04:58;19.50;;;14.32;;
48751;SDS011;34544;48.836;9.174;2024-03-22T03:07:24;19.73;;;14.57;;
48751;SDS011;34544;48.836;9.174;2024-03-22T03:09:50;23.60;;;14.75;;
48751;SDS011;34544;48.836;9.174;2024-03-22T03:12:16;19.95;;;14.48;;
48751;SDS011;34544;48.836;9.174;2024-03-22T03:14:42;21.45;;;15.20;;
48751;SDS011;34544;48.836;9.174;2024-03-22T03:17:08;24.60;;;14.85;;
48751;SDS011;34544;48.836;9.174;2024-03-22T03:19:33;19.73;;;13.75;;
48751;SDS011;34544;48.836;9.174;2024-03-22T03:21:59;21.52;;;13.65;;
48751;SDS011;34544;48.836;9.174;2024-03-22T03:24:24;20.30;;;15.00;;
48751;SDS011;34544;48.836;9.174;2024-03-22T03:26:50;18.38;;;13.75;;
48751;SDS011;34544;48.836;9.174;2024-03-22T03:29:16;21.17;;;14.32;;
48751;SDS011;34544;48.836;9.174;2024-03-22T03:31:42;22.30;;;14.93;;
48751;SDS011;34544;48.836;9.174;2024-03-22T03:34:08;22.27;;;15.23;;
48751;SDS011;34544;48.836;9.174;2024-03-22T03:36:33;27.67;;;15.35;;
48751;SDS011;34544;48.836;9.174;2024-03-22T03:38:59;25.13;;;14.70;;
48751;SDS011;34544;48.836;9.174;2024-03-22T03:41:25;25.15;;;15.55;;
48751;SDS011;34544;48.836;9.174;2024-03-22T03:43:50;23.33;;;15.10;;
48751;SDS011;34544;48.836;9.174;2024-03-22T03:46:16;20.13;;;14.50;;
48751;SDS011;34544;48.836;9.174;2024-03-22T03:48:42;21.67;;;15.02;;
48751;SDS011;34544;48.836;9.174;2024-03-22T03:51:08;22.25;;;16.08;;
48751;SDS011;34544;48.836;9.174;2024-03-22T03:53:34;21.38;;;15.77;;
48751;SDS011;34544;48.836;9.174;2024-03-22T03:55:59;20.13;;;14.43;;
48751;SDS011;34544;48.836;9.174;2024-03-22T03:58:25;22.65;;;15.57;;
48751;SDS011;34544;48.836;9.174;2024-03-22T04:00:51;28.58;;;16.75;;
48751;SDS011;34544;48.836;9.174;2024-03-22T04:03:16;24.60;;;16.38;;
48751;SDS011;34544;48.836;9.174;2024-03-22T04:05:42;25.05;;;16.25;;
48751;SDS011;34544;48.836;9.174;2024-03-22T04:08:08;22.33;;;15.32;;
48751;SDS011;34544;48.836;9.174;2024-03-22T04:10:34;22.52;;;15.25;;
48751;SDS011;34544;48.836;9.174;2024-03-22T04:13:00;20.88;;;15.07;;
48751;SDS011;34544;48.836;9.174;2024-03-22T04:15:25;20.60;;;15.90;;
48751;SDS011;34544;48.836;9.174;2024-03-22T04:17:51;22.60;;;15.77;;
48751;SDS011;34544;48.836;9.174;2024-03-22T04:20:17;20.92;;;15.02;;
48751;SDS011;34544;48.836;9.174;2024-03-22T04:22:42;22.70;;;16.60;;
48751;SDS011;34544;48.836;9.174;2024-03-22T04:25:08;22.88;;;15.00;;
48751;SDS011;34544;48.836;9.174;2024-03-22T04:27:37;27.55;;;17.45;;
48751;SDS011;34544;48.836;9.174;2024-03-22T04:30:03;27.95;;;15.85;;
48751;SDS011;34544;48.836;9.174;2024-03-22T04:32:29;27.33;;;17.48;;
48751;SDS011;34544;48.836;9.174;2024-03-22T04:34:55;25.17;;;16.85;;
48751;SDS011;34544;48.836;9.174;2024-03-22T04:37:21;31.40;;;16.88;;
48751;SDS011;34544;48.836;9.174;2024-03-22T04:39:46;21.02;;;15.52;;
48751;SDS011;34544;48.836;9.174;2024-03-22T04:42:12;22.27;;;16.20;;
48751;SDS011;34544;48.836;9.174;2024-03-22T04:44:38;21.95;;;15.60;;
48751;SDS011;34544;48.836;9.174;2024-03-22T04:47:03;24.35;;;15.80;;
48751;SDS011;34544;48.836;9.174;2024-03-22T04:49:29;21.27;;;15.60;;
48751;SDS011;34544;48.836;9.174;2024-03-22T04:51:56;22.02;;;15.80;;
48751;SDS011;34544;48.836;9.174;2024-03-22T04:54:21;23.45;;;15.35;;
48751;SDS011;34544;48.836;9.174;2024-03-22T04:56:47;21.38;;;15.05;;
48751;SDS011;34544;48.836;9.174;2024-03-22T04:59:13;22.98;;;15.25;;
48751;SDS011;34544;48.836;9.174;2024-03-22T05:01:39;23.27;;;15.55;;
48751;SDS011;34544;48.836;9.174;2024-03-22T05:04:04;25.98;;;15.88;;
48751;SDS011;34544;48.836;9.174;2024-03-22T05:06:30;25.55;;;15.75;;
48751;SDS011;34544;48.836;9.174;2024-03-22T05:08:55;20.98;;;16.23;;
48751;SDS011;34544;48.836;9.174;2024-03-22T05:11:21;27.60;;;17.70;;
48751;SDS011;34544;48.836;9.174;2024-03-22T05:13:47;29.15;;;19.60;;
48751;SDS011;34544;48.836;9.174;2024-03-22T05:16:12;24.30;;;17.90;;
48751;SDS011;34544;48.836;9.174;2024-03-22T05:18:38;33.85;;;18.45;;
48751;SDS011;34544;48.836;9.174;2024-03-22T05:21:04;23.58;;;16.50;;
48751;SDS011;34544;48.836;9.174;2024-03-22T05:23:30;22.55;;;15.60;;
48751;SDS011;34544;48.836;9.174;2024-03-22T05:25:56;21.63;;;15.20;;
48751;SDS011;34544;48.836;9.174;2024-03-22T05:28:22;27.00;;;17.38;;
48751;SDS011;34544;48.836;9.174;2024-03-22T05:30:47;22.33;;;16.00;;
48751;SDS011;34544;48.836;9.174;2024-03-22T05:33:13;23.98;;;16.20;;
48751;SDS011;34544;48.836;9.174;2024-03-22T05:35:38;24.52;;;17.13;;
48751;SDS011;34544;48.836;9.174;2024-03-22T05:38:04;21.75;;;15.15;;
48751;SDS011;34544;48.836;9.174;2024-03-22T05:40:30;21.33;;;15.48;;
48751;SDS011;34544;48.836;9.174;2024-03-22T05:42:56;21.00;;;15.57;;
48751;SDS011;34544;48.836;9.174;2024-03-22T05:45:22;26.45;;;16.38;;
48751;SDS011;34544;48.836;9.174;2024-03-22T05:47:47;23.42;;;16.00;;
48751;SDS011;34544;48.836;9.174;2024-03-22T05:50:13;25.88;;;17.42;;
48751;SDS011;34544;48.836;9.174;2024-03-22T05:52:39;24.55;;;17.10;;
48751;SDS011;34544;48.836;9.174;2024-03-22T05:55:05;31.85;;;20.15;;
48751;SDS011;34544;48.836;9.174;2024-03-22T05:57:31;26.83;;;18.20;;
48751;SDS011;34544;48.836;9.174;2024-03-22T05:59:57;24.10;;;15.43;;
48751;SDS011;34544;48.836;9.174;2024-03-22T06:02:22;23.92;;;16.52;;
48751;SDS011;34544;48.836;9.174;2024-03-22T06:04:48;23.73;;;15.15;;
48751;SDS011;34544;48.836;9.174;2024-03-22T06:07:14;21.98;;;15.82;;
48751;SDS011;34544;48.836;9.174;2024-03-22T06:09:41;25.75;;;16.00;;
48751;SDS011;34544;48.836;9.174;2024-03-22T06:14:43;21.17;;;15.82;;
48751;SDS011;34544;48.836;9.174;2024-03-22T06:17:09;26.27;;;15.02;;
48751;SDS011;34544;48.836;9.174;2024-03-22T06:19:35;24.27;;;16.17;;
48751;SDS011;34544;48.836;9.174;2024-03-22T06:22:02;23.02;;;15.55;;
48751;SDS011;34544;48.836;9.174;2024-03-22T06:24:27;22.73;;;15.93;;
48751;SDS011;34544;48.836;9.174;2024-03-22T06:26:53;26.67;;;16.90;;
48751;SDS011;34544;48.836;9.174;2024-03-22T06:29:19;30.73;;;16.67;;
48751;SDS011;34544;48.836;9.174;2024-03-22T06:31:45;25.38;;;16.52;;
48751;SDS011;34544;48.836;9.174;2024-03-22T06:34:10;22.60;;;16.45;;
48751;SDS011;34544;48.836;9.174;2024-03-22T06:36:36;26.80;;;15.73;;
48751;SDS011;34544;48.836;9.174;2024-03-22T06:39:02;24.90;;;16.60;;
48751;SDS011;34544;48.836;9.174;2024-03-22T06:41:31;26.10;;;15.50;;
48751;SDS011;34544;48.836;9.174;2024-03-22T06:43:57;22.92;;;16.08;;
48751;SDS011;34544;48.836;9.174;2024-03-22T06:46:23;23.27;;;14.02;;
48751;SDS011;34544;48.836;9.174;2024-03-22T06:48:49;29.67;;;15.02;;
48751;SDS011;34544;48.836;9.174;2024-03-22T06:51:18;22.25;;;15.13;;
48751;SDS011;34544;48.836;9.174;2024-03-22T06:53:43;21.73;;;13.93;;
48751;SDS011;34544;48.836;9.174;2024-03-22T06:56:10;19.73;;;14.45;;
48751;SDS011;34544;48.836;9.174;2024-03-22T06:58:38;21.60;;;13.90;;
48751;SDS011;34544;48.836;9.174;2024-03-22T07:01:03;21.40;;;14.20;;
48751;SDS011;34544;48.836;9.174;2024-03-22T07:03:30;18.95;;;14.32;;
48751;SDS011;34544;48.836;9.174;2024-03-22T07:05:58;19.65;;;14.20;;
48751;SDS011;34544;48.836;9.174;2024-03-22T07:08:24;20.65;;;12.95;;
48751;SDS011;34544;48.836;9.174;2024-03-22T07:10:50;20.50;;;12.80;;
48751;SDS011;34544;48.836;9.174;2024-03-22T07:13:18;19.02;;;12.50;;
48751;SDS011;34544;48.836;9.174;2024-03-22T07:15:46;18.05;;;14.35;;
48751;SDS011;34544;48.836;9.174;2024-03-22T07:18:13;19.15;;;13.32;;
48751;SDS011;34544;48.836;9.174;2024-03-22T07:20:39;21.35;;;13.70;;
48751;SDS011;34544;48.836;9.174;2024-03-22T07:23:05;17.25;;;12.05;;
48751;SDS011;34544;48.836;9.174;2024-03-22T07:25:30;22.92;;;12.45;;
48751;SDS011;34544;48.836;9.174;2024-03-22T07:27:56;17.77;;;11.93;;
48751;SDS011;34544;48.836;9.174;2024-03-22T07:30:22;15.43;;;11.63;;
48751;SDS011;34544;48.836;9.174;2024-03-22T07:32:48;14.05;;;10.60;;
48751;SDS011;34544;48.836;9.174;2024-03-22T07:35:13;18.55;;;10.80;;
48751;SDS011;34544;48.836;9.174;2024-03-22T07:37:39;12.02;;;10.23;;
48751;SDS011;34544;48.836;9.174;2024-03-22T07:40:06;14.00;;;10.70;;
48751;SDS011;34544;48.836;9.174;2024-03-22T07:42:32;16.60;;;10.88;;
48751;SDS011;34544;48.836;9.174;2024-03-22T07:44:57;16.48;;;9.68;;
48751;SDS011;34544;48.836;9.174;2024-03-22T07:47:23;10.40;;;8.88;;
48751;SDS011;34544;48.836;9.174;2024-03-22T07:49:50;12.95;;;9.55;;
48751;SDS011;34544;48.836;9.174;2024-03-22T07:52:16;14.60;;;9.30;;
48751;SDS011;34544;48.836;9.174;2024-03-22T07:54:41;13.63;;;9.38;;
48751;SDS011;34544;48.836;9.174;2024-03-22T07:57:07;11.48;;;9.48;;
48751;SDS011;34544;48.836;9.174;2024-03-22T07:59:35;13.20;;;9.85;;
48751;SDS011;34544;48.836;9.174;2024-03-22T08:02:01;11.00;;;8.75;;
48751;SDS011;34544;48.836;9.174;2024-03-22T08:04:28;14.05;;;9.43;;
48751;SDS011;34544;48.836;9.174;2024-03-22T08:06:54;18.50;;;10.23;;
48751;SDS011;34544;48.836;9.174;2024-03-22T08:09:20;12.48;;;8.73;;
48751;SDS011;34544;48.836;9.174;2024-03-22T08:11:46;21.60;;;9.32;;
48751;SDS011;34544;48.836;9.174;2024-03-22T08:14:13;13.70;;;8.98;;
48751;SDS011;34544;48.836;9.174;2024-03-22T08:16:39;17.73;;;8.38;;
48751;SDS011;34544;48.836;9.174;2024-03-22T08:19:04;8.93;;;8.02;;
48751;SDS011;34544;48.836;9.174;2024-03-22T08:21:30;11.63;;;8.65;;
48751;SDS011;34544;48.836;9.174;2024-03-22T08:23:56;13.32;;;8.07;;
48751;SDS011;34544;48.836;9.174;2024-03-22T08:26:22;12.40;;;8.15;;
48751;SDS011;34544;48.836;9.174;2024-03-22T08:28:48;11.55;;;8.45;;
48751;SDS011;34544;48.836;9.174;2024-03-22T08:31:14;13.15;;;8.18;;
48751;SDS011;34544;48.836;9.174;2024-03-22T08:33:42;11.23;;;7.82;;
48751;SDS011;34544;48.836;9.174;2024-03-22T08:36:08;8.88;;;6.50;;
48751;SDS011;34544;48.836;9.174;2024-03-22T08:38:33;15.95;;;7.68;;
48751;SDS011;34544;48.836;9.174;2024-03-22T08:40:59;12.40;;;7.72;;
48751;SDS011;34544;48.836;9.174;2024-03-22T08:43:25;15.63;;;7.28;;
48751;SDS011;34544;48.836;9.174;2024-03-22T08:45:52;14.93;;;6.38;;
48751;SDS011;34544;48.836;9.174;2024-03-22T08:48:18;9.82;;;6.93;;
48751;SDS011;34544;48.836;9.174;2024-03-22T08:50:44;9.13;;;6.63;;
48751;SDS011;34544;48.836;9.174;2024-03-22T08:53:10;10.75;;;7.22;;
48751;SDS011;34544;48.836;9.174;2024-03-22T08:55:35;15.05;;;7.45;;
48751;SDS011;34544;48.836;9.174;2024-03-22T08:58:01;14.38;;;8.55;;
48751;SDS011;34544;48.836;9.174;2024-03-22T09:00:29;11.85;;;8.23;;
48751;SDS011;34544;48.836;9.174;2024-03-22T09:02:54;14.35;;;7.90;;
48751;SDS011;34544;48.836;9.174;2024-03-22T09:05:20;15.27;;;8.88;;
48751;SDS011;34544;48.836;9.174;2024-03-22T09:07:46;14.00;;;8.48;;
48751;SDS011;34544;48.836;9.174;2024-03-22T09:10:13;13.70;;;8.95;;
48751;SDS011;34544;48.836;9.174;2024-03-22T09:12:39;15.10;;;7.70;;
48751;SDS011;34544;48.836;9.174;2024-03-22T09:15:05;14.18;;;8.43;;
48751;SDS011;34544;48.836;9.174;2024-03-22T09:17:32;12.23;;;8.32;;
48751;SDS011;34544;48.836;9.174;2024-03-22T09:19:58;11.25;;;7.45;;
48751;SDS011;34544;48.836;9.174;2024-03-22T09:22:24;6.93;;;5.40;;
48751;SDS011;34544;48.836;9.174;2024-03-22T09:24:50;9.45;;;6.00;;
48751;SDS011;34544;48.836;9.174;2024-03-22T09:27:15;7.35;;;4.20;;
48751;SDS011;34544;48.836;9.174;2024-03-22T09:29:41;6.05;;;4.93;;
48751;SDS011;34544;48.836;9.174;2024-03-22T09:32:09;8.88;;;4.43;;
48751;SDS011;34544;48.836;9.174;2024-03-22T09:34:34;6.05;;;4.13;;
48751;SDS011;34544;48.836;9.174;2024-03-22T09:37:00;7.70;;;4.43;;
48751;SDS011;34544;48.836;9.174;2024-03-22T09:39:28;5.63;;;3.95;;
48751;SDS011;34544;48.836;9.174;2024-03-22T09:41:56;7.13;;;3.35;;
48751;SDS011;34544;48.836;9.174;2024-03-22T09:44:22;8.63;;;3.55;;
48751;SDS011;34544;48.836;9.174;2024-03-22T09:46:50;8.50;;;4.32;;
48751;SDS011;34544;48.836;9.174;2024-03-22T09:49:16;5.78;;;3.97;;
48751;SDS011;34544;48.836;9.174;2024-03-22T09:51:43;4.78;;;4.13;;
48751;SDS011;34544;48.836;9.174;2024-03-22T09:54:09;5.03;;;4.40;;
48751;SDS011;34544;48.836;9.174;2024-03-22T09:56:35;7.63;;;4.90;;
48751;SDS011;34544;48.836;9.174;2024-03-22T09:59:04;7.03;;;3.90;;
48751;SDS011;34544;48.836;9.174;2024-03-22T10:01:30;4.32;;;3.92;;
48751;SDS011;34544;48.836;9.174;2024-03-22T10:03:57;4.88;;;3.95;;
48751;SDS011;34544;48.836;9.174;2024-03-22T10:06:23;6.63;;;3.88;;
48751;SDS011;34544;48.836;9.174;2024-03-22T10:08:49;10.00;;;3.88;;
48751;SDS011;34544;48.836;9.174;2024-03-22T10:11:15;6.45;;;4.20;;
48751;SDS011;34544;48.836;9.174;2024-03-22T10:13:41;6.32;;;4.25;;
48751;SDS011;34544;48.836;9.174;2024-03-22T10:16:07;9.18;;;4.20;;
48751;SDS011;34544;48.836;9.174;2024-03-22T10:18:33;4.63;;;3.45;;
48751;SDS011;34544;48.836;9.174;2024-03-22T10:21:03;5.60;;;4.07;;
48751;SDS011;34544;48.836;9.174;2024-03-22T10:23:29;8.30;;;4.47;;
48751;SDS011;34544;48.836;9.174;2024-03-22T10:25:58;4.53;;;3.60;;
48751;SDS011;34544;48.836;9.174;2024-03-22T10:28:25;7.22;;;4.65;;
48751;SDS011;34544;48.836;9.174;2024-03-22T10:30:51;7.43;;;4.88;;
48751;SDS011;34544;48.836;9.174;2024-03-22T10:33:19;4.75;;;4.13;;
48751;SDS011;34544;48.836;9.174;2024-03-22T10:35:48;6.80;;;4.43;;
48751;SDS011;34544;48.836;9.174;2024-03-22T10:38:21;6.60;;;4.40;;
48751;SDS011;34544;48.836;9.174;2024-03-22T10:40:49;4.68;;;3.78;;
48751;SDS011;34544;48.836;9.174;2024-03-22T10:43:15;6.22;;;3.67;;
48751;SDS011;34544;48.836;9.174;2024-03-22T10:45:41;4.97;;;3.20;;
48751;SDS011;34544;48.836;9.174;2024-03-22T10:48:11;7.65;;;4.13;;
48751;SDS011;34544;48.836;9.174;2024-03-22T10:50:41;4.38;;;3.53;;
48751;SDS011;34544;48.836;9.174;2024-03-22T10:53:18;9.07;;;4.30;;
48751;SDS011;34544;48.836;9.174;2024-03-22T10:55:49;9.20;;;4.10;;
48751;SDS011;34544;48.836;9.174;2024-03-22T10:58:18;6.68;;;3.97;;
48751;SDS011;34544;48.836;9.174;2024-03-22T11:00:46;4.47;;;4.07;;
48751;SDS011;34544;48.836;9.174;2024-03-22T11:03:12;3.72;;;3.30;;
48751;SDS011;34544;48.836;9.174;2024-03-22T11:05:48;5.55;;;3.90;;
48751;SDS011;34544;48.836;9.174;2024-03-22T11:08:25;7.00;;;4.50;;
48751;SDS011;34544;48.836;9.174;2024-03-22T11:10:51;5.88;;;4.05;;
48751;SDS011;34544;48.836;9.174;2024-03-22T11:13:20;6.25;;;3.28;;
48751;SDS011;34544;48.836;9.174;2024-03-22T11:15:49;5.68;;;3.38;;
48751;SDS011;34544;48.836;9.174;2024-03-22T11:18:16;4.63;;;3.80;;
48751;SDS011;34544;48.836;9.174;2024-03-22T11:20:42;7.53;;;3.75;;
48751;SDS011;34544;48.836;9.174;2024-03-22T11:23:12;4.53;;;3.75;;
48751;SDS011;34544;48.836;9.174;2024-03-22T11:25:38;4.40;;;3.63;;
48751;SDS011;34544;48.836;9.174;2024-03-22T11:28:04;7.63;;;4.00;;
48751;SDS011;34544;48.836;9.174;2024-03-22T11:30:31;8.00;;;3.25;;
48751;SDS011;34544;48.836;9.174;2024-03-22T11:32:57;4.95;;;2.70;;
48751;SDS011;34544;48.836;9.174;2024-03-22T11:35:26;2.92;;;2.58;;
48751;SDS011;34544;48.836;9.174;2024-03-22T11:37:52;4.32;;;2.67;;
48751;SDS011;34544;48.836;9.174;2024-03-22T11:40:18;4.05;;;2.67;;
48751;SDS011;34544;48.836;9.174;2024-03-22T11:42:47;8.15;;;2.90;;
48751;SDS011;34544;48.836;9.174;2024-03-22T11:45:15;3.00;;;2.70;;
48751;SDS011;34544;48.836;9.174;2024-03-22T11:47:46;4.13;;;2.45;;
48751;SDS011;34544;48.836;9.174;2024-03-22T11:50:12;4.53;;;1.88;;
48751;SDS011;34544;48.836;9.174;2024-03-22T11:52:42;3.08;;;2.45;;
48751;SDS011;34544;48.836;9.174;2024-03-22T11:55:12;6.32;;;3.00;;
48751;SDS011;34544;48.836;9.174;2024-03-22T11:57:38;4.43;;;2.50;;
48751;SDS011;34544;48.836;9.174;2024-03-22T12:00:05;3.53;;;2.40;;
48751;SDS011;34544;48.836;9.174;2024-03-22T12:02:40;5.38;;;2.60;;
48751;SDS011;34544;48.836;9.174;2024-03-22T12:05:07;3.90;;;2.65;;
48751;SDS011;34544;48.836;9.174;2024-03-22T12:07:34;7.38;;;2.22;;
48751;SDS011;34544;48.836;9.174;2024-03-22T12:10:01;6.00;;;2.08;;
48751;SDS011;34544;48.836;9.174;2024-03-22T12:12:31;4.60;;;2.45;;
48751;SDS011;34544;48.836;9.174;2024-03-22T12:14:56;5.95;;;4.03;;
48751;SDS011;34544;48.836;9.174;2024-03-22T12:17:22;5.97;;;2.47;;
48751;SDS011;34544;48.836;9.174;2024-03-22T12:19:48;6.53;;;2.80;;
48751;SDS011;34544;48.836;9.174;2024-03-22T12:22:14;5.60;;;2.58;;
48751;SDS011;34544;48.836;9.174;2024-03-22T12:24:42;2.83;;;1.92;;
48751;SDS011;34544;48.836;9.174;2024-03-22T12:27:08;3.42;;;2.40;;
48751;SDS011;34544;48.836;9.174;2024-03-22T12:29:34;3.25;;;2.38;;
48751;SDS011;34544;48.836;9.174;2024-03-22T12:32:01;5.10;;;2.75;;
48751;SDS011;34544;48.836;9.174;2024-03-22T12:34:29;4.82;;;2.20;;
48751;SDS011;34544;48.836;9.174;2024-03-22T12:36:55;7.38;;;2.33;;
48751;SDS011;34544;48.836;9.174;2024-03-22T12:39:21;4.95;;;2.35;;
48751;SDS011;34544;48.836;9.174;2024-03-22T12:41:47;3.05;;;2.05;;
48751;SDS011;34544;48.836;9.174;2024-03-22T12:44:14;4.53;;;2.63;;
48751;SDS011;34544;48.836;9.174;2024-03-22T12:46:39;3.72;;;2.33;;
48751;SDS011;34544;48.836;9.174;2024-03-22T12:49:07;4.43;;;1.92;;
48751;SDS011;34544;48.836;9.174;2024-03-22T12:51:34;6.15;;;2.85;;
48751;SDS011;34544;48.836;9.174;2024-03-22T12:54:02;5.35;;;1.80;;
48751;SDS011;34544;48.836;9.174;2024-03-22T12:56:28;5.28;;;2.22;;
48751;SDS011;34544;48.836;9.174;2024-03-22T12:58:54;4.50;;;2.33;;
48751;SDS011;34544;48.836;9.174;2024-03-22T13:01:20;3.83;;;2.47;;
48751;SDS011;34544;48.836;9.174;2024-03-22T13:03:46;3.67;;;2.08;;
48751;SDS011;34544;48.836;9.174;2024-03-22T13:06:12;3.55;;;2.10;;
48751;SDS011;34544;48.836;9.174;2024-03-22T13:08:38;3.47;;;2.35;;
48751;SDS011;34544;48.836;9.174;2024-03-22T13:11:04;4.35;;;1.80;;
48751;SDS011;34544;48.836;9.174;2024-03-22T13:13:30;6.70;;;1.92;;
48751;SDS011;34544;48.836;9.174;2024-03-22T13:15:58;4.40;;;2.00;;
48751;SDS011;34544;48.836;9.174;2024-03-22T13:18:24;4.53;;;2.08;;
48751;SDS011;34544;48.836;9.174;2024-03-22T13:20:49;3.70;;;2.63;;
48751;SDS011;34544;48.836;9.174;2024-03-22T13:23:15;6.50;;;2.20;;
48751;SDS011;34544;48.836;9.174;2024-03-22T13:25:41;6.55;;;3.22;;
48751;SDS011;34544;48.836;9.174;2024-03-22T13:28:06;5.28;;;2.92;;
48751;SDS011;34544;48.836;9.174;2024-03-22T13:30:32;3.80;;;2.70;;
48751;SDS011;34544;48.836;9.174;2024-03-22T13:33:00;6.00;;;3.05;;
48751;SDS011;34544;48.836;9.174;2024-03-22T13:35:26;4.20;;;2.95;;
48751;SDS011;34544;48.836;9.174;2024-03-22T13:37:51;4.85;;;3.00;;
48751;SDS011;34544;48.836;9.174;2024-03-22T13:40:17;5.10;;;3.10;;
48751;SDS011;34544;48.836;9.174;2024-03-22T13:42:43;7.15;;;3.05;;
48751;SDS011;34544;48.836;9.174;2024-03-22T13:45:08;3.33;;;2.55;;
48751;SDS011;34544;48.836;9.174;2024-03-22T13:47:34;4.78;;;2.97;;
48751;SDS011;34544;48.836;9.174;2024-03-22T13:50:02;5.50;;;3.88;;
48751;SDS011;34544;48.836;9.174;2024-03-22T13:52:29;4.68;;;2.90;;
48751;SDS011;34544;48.836;9.174;2024-03-22T13:54:55;7.82;;;2.80;;
48751;SDS011;34544;48.836;9.174;2024-03-22T13:57:21;3.17;;;2.85;;
48751;SDS011;34544;48.836;9.174;2024-03-22T13:59:49;7.05;;;2.60;;
48751;SDS011;34544;48.836;9.174;2024-03-22T14:02:15;7.63;;;3.58;;
48751;SDS011;34544;48.836;9.174;2024-03-22T14:04:41;9.13;;;3.47;;
48751;SDS011;34544;48.836;9.174;2024-03-22T14:07:07;9.15;;;3.05;;
48751;SDS011;34544;48.836;9.174;2024-03-22T14:09:34;4.60;;;2.13;;
48751;SDS011;34544;48.836;9.174;2024-03-22T14:12:01;6.45;;;3.22;;
48751;SDS011;34544;48.836;9.174;2024-03-22T14:14:27;6.53;;;2.63;;
48751;SDS011;34544;48.836;9.174;2024-03-22T14:16:53;5.28;;;2.63;;
48751;SDS011;34544;48.836;9.174;2024-03-22T14:19:19;6.65;;;2.40;;
48751;SDS011;34544;48.836;9.174;2024-03-22T14:21:45;3.60;;;1.77;;
48751;SDS011;34544;48.836;9.174;2024-03-22T14:24:11;5.10;;;1.67;;
48751;SDS011;34544;48.836;9.174;2024-03-22T14:26:38;5.35;;;2.08;;
48751;SDS011;34544;48.836;9.174;2024-03-22T14:29:09;5.65;;;1.50;;
48751;SDS011;34544;48.836;9.174;2024-03-22T14:31:35;3.33;;;1.55;;